Time;durP1;ratioP1;P1;durP2;ratioP2;P2;SDS_P1;SDS_P2;PMS_P1;PMS_P2;Temp;Humidity;BMP_temperature;BMP_pressure;BME280_temperature;BME280_humidity;BME280_pressure;Samples;Min_cycle;Max_cycle;Signal;HPM_P1;HPM_P2
2022/10/13 00:01:35;;;;;;;19.63;11.95;;;;;;;;;;5039993;28;20560;-68
2022/10/13 00:04:00;;;;;;;23.48;12.30;;;;;;;;;;5040580;28;20193;-68
2022/10/13 00:06:26;;;;;;;22.85;11.40;;;;;;;;;;5039955;28;20674;-68
2022/10/13 00:08:52;;;;;;;24.70;12.27;;;;;;;;;;5039173;28;20256;-68
2022/10/13 00:11:20;;;;;;;23.23;11.77;;;;;;;;;;5032134;28;20701;-68
2022/10/13 00:13:47;;;;;;;21.58;11.00;;;;;;;;;;5041157;28;20181;-68
2022/10/13 00:16:15;;;;;;;21.92;12.50;;;;;;;;;;5043240;28;20242;-68
2022/10/13 00:18:40;;;;;;;28.98;12.25;;;;;;;;;;5042992;28;20182;-68
2022/10/13 00:21:12;;;;;;;28.80;13.48;;;;;;;;;;5036378;28;20257;-68
2022/10/13 00:23:39;;;;;;;21.50;13.52;;;;;;;;;;5035148;28;20268;-68
2022/10/13 00:26:06;;;;;;;22.02;11.82;;;;;;;;;;5049084;28;20205;-68
2022/10/13 00:28:32;;;;;;;24.95;12.70;;;;;;;;;;5045871;28;20708;-68
2022/10/13 00:30:57;;;;;;;26.58;12.57;;;;;;;;;;5035565;28;20292;-68
2022/10/13 00:33:22;;;;;;;17.80;10.02;;;;;;;;;;5045269;28;20201;-68
2022/10/13 00:35:48;;;;;;;23.67;12.38;;;;;;;;;;5031067;28;20715;-68
2022/10/13 00:38:19;;;;;;;25.13;13.10;;;;;;;;;;5031097;28;20190;-68
2022/10/13 00:40:55;;;;;;;27.92;13.15;;;;;;;;;;5030948;28;20265;-68
2022/10/13 00:43:52;;;;;;;28.08;13.02;;;;;;;;;;5031725;28;20197;-68
2022/10/13 00:46:18;;;;;;;22.17;12.07;;;;;;;;;;5037214;28;20247;-68
2022/10/13 00:48:45;;;;;;;24.42;12.43;;;;;;;;;;5047681;28;20186;-68
2022/10/13 00:51:13;;;;;;;29.00;12.80;;;;;;;;;;5036165;28;20182;-68
2022/10/13 00:53:39;;;;;;;26.70;11.68;;;;;;;;;;5038308;28;20186;-68
2022/10/13 00:56:08;;;;;;;22.30;12.50;;;;;;;;;;5045629;28;20284;-68
2022/10/13 00:58:36;;;;;;;23.08;12.48;;;;;;;;;;5050337;28;20181;-70
2022/10/13 01:01:03;;;;;;;26.05;12.77;;;;;;;;;;5045526;28;20194;-68
2022/10/13 01:03:29;;;;;;;27.17;12.93;;;;;;;;;;5035559;28;20185;-68
2022/10/13 01:05:58;;;;;;;24.02;12.65;;;;;;;;;;5039755;28;20212;-68
2022/10/13 01:08:25;;;;;;;22.42;12.18;;;;;;;;;;5039748;28;20657;-68
2022/10/13 01:11:15;;;;;;;24.23;12.05;;;;;;;;;;5047619;28;20726;-68
2022/10/13 01:14:07;;;;;;;23.02;12.65;;;;;;;;;;5030915;28;20276;-67
2022/10/13 01:16:59;;;;;;;26.27;12.07;;;;;;;;;;5033129;28;20192;-68
2022/10/13 01:20:13;;;;;;;26.67;11.73;;;;;;;;;;5045721;28;20564;-68
2022/10/13 01:22:59;;;;;;;23.75;12.13;;;;;;;;;;5039226;28;20548;-68
2022/10/13 01:26:03;;;;;;;22.23;12.25;;;;;;;;;;5030318;28;20247;-67
2022/10/13 01:29:01;;;;;;;24.15;12.18;;;;;;;;;;5044315;28;20264;-68
2022/10/13 01:31:48;;;;;;;25.80;12.73;;;;;;;;;;5036152;28;20221;-68
2022/10/13 01:34:13;;;;;;;28.00;12.48;;;;;;;;;;5037592;28;20184;-68
2022/10/13 01:37:15;;;;;;;32.10;13.82;;;;;;;;;;5029817;28;20197;-68
2022/10/13 01:39:46;;;;;;;25.50;12.40;;;;;;;;;;5031486;28;20231;-68
2022/10/13 01:42:20;;;;;;;26.88;12.05;;;;;;;;;;5038036;28;20196;-68
2022/10/13 01:44:53;;;;;;;31.25;13.43;;;;;;;;;;5030115;28;20189;-67
2022/10/13 01:47:20;;;;;;;21.35;12.23;;;;;;;;;;5032899;28;20284;-67
2022/10/13 01:49:49;;;;;;;26.40;12.52;;;;;;;;;;5032794;28;20174;-67
2022/10/13 01:52:17;;;;;;;25.42;12.60;;;;;;;;;;5044881;28;20177;-67
2022/10/13 01:54:47;;;;;;;26.23;11.90;;;;;;;;;;5032049;28;20393;-67
2022/10/13 01:57:42;;;;;;;24.10;12.75;;;;;;;;;;5041338;28;20276;-67
2022/10/13 02:00:17;;;;;;;19.58;11.85;;;;;;;;;;5030700;28;20186;-67
2022/10/13 02:02:57;;;;;;;22.23;11.38;;;;;;;;;;5044507;28;20283;-67
2022/10/13 02:05:31;;;;;;;22.52;11.35;;;;;;;;;;5038095;28;20251;-67
2022/10/13 02:08:33;;;;;;;29.42;11.52;;;;;;;;;;5033505;28;20194;-67
2022/10/13 02:11:13;;;;;;;18.35;10.68;;;;;;;;;;5028894;28;20203;-67
2022/10/13 02:13:46;;;;;;;17.52;11.05;;;;;;;;;;5033076;28;20178;-67
2022/10/13 02:16:14;;;;;;;21.92;12.07;;;;;;;;;;5034506;28;20188;-67
2022/10/13 02:18:40;;;;;;;29.27;12.15;;;;;;;;;;5035771;28;20272;-69
2022/10/13 02:21:06;;;;;;;20.20;11.32;;;;;;;;;;5040270;28;20624;-67
2022/10/13 02:23:31;;;;;;;20.42;12.48;;;;;;;;;;5039626;28;20454;-67
2022/10/13 02:25:59;;;;;;;22.05;12.00;;;;;;;;;;5039019;28;20288;-67
2022/10/13 02:28:25;;;;;;;17.40;10.48;;;;;;;;;;5043611;28;20185;-67
2022/10/13 02:30:51;;;;;;;27.10;13.18;;;;;;;;;;5037635;28;20452;-67
2022/10/13 02:33:16;;;;;;;24.73;11.85;;;;;;;;;;5038625;28;20280;-67
2022/10/13 02:35:42;;;;;;;26.23;12.30;;;;;;;;;;5044548;28;20174;-67
2022/10/13 02:38:08;;;;;;;21.52;12.02;;;;;;;;;;5048155;28;20203;-67
2022/10/13 02:40:33;;;;;;;27.35;12.80;;;;;;;;;;5046347;28;20189;-67
2022/10/13 02:42:59;;;;;;;22.38;11.60;;;;;;;;;;5045301;28;20189;-67
2022/10/13 02:45:24;;;;;;;24.17;12.90;;;;;;;;;;5033626;28;20281;-67
2022/10/13 02:47:49;;;;;;;24.77;13.40;;;;;;;;;;5029599;28;20188;-67
2022/10/13 02:50:15;;;;;;;23.98;13.80;;;;;;;;;;5043329;28;20177;-67
2022/10/13 02:52:40;;;;;;;28.63;13.73;;;;;;;;;;5043254;28;20197;-68
2022/10/13 02:55:07;;;;;;;19.90;12.13;;;;;;;;;;5046882;28;20184;-67
2022/10/13 02:57:32;;;;;;;24.77;12.63;;;;;;;;;;5030830;28;20186;-67
2022/10/13 02:59:58;;;;;;;26.40;13.25;;;;;;;;;;5028732;28;20196;-67
2022/10/13 03:02:26;;;;;;;24.67;13.98;;;;;;;;;;5041836;28;20188;-67
2022/10/13 03:04:51;;;;;;;25.67;13.95;;;;;;;;;;5037227;28;20280;-67
2022/10/13 03:07:16;;;;;;;27.63;13.95;;;;;;;;;;5045294;28;20730;-67
2022/10/13 03:09:42;;;;;;;25.70;14.20;;;;;;;;;;5036414;28;20181;-67
2022/10/13 03:12:07;;;;;;;26.85;13.93;;;;;;;;;;5035798;28;20198;-67
2022/10/13 03:14:32;;;;;;;26.15;14.90;;;;;;;;;;5046964;28;20595;-67
2022/10/13 03:16:59;;;;;;;24.73;14.32;;;;;;;;;;5048305;28;20185;-67
2022/10/13 03:19:25;;;;;;;31.23;14.60;;;;;;;;;;5039356;28;20177;-67
2022/10/13 03:21:50;;;;;;;28.13;13.50;;;;;;;;;;5039150;28;20783;-66
2022/10/13 03:24:15;;;;;;;22.15;14.23;;;;;;;;;;5041817;28;20209;-67
2022/10/13 03:26:41;;;;;;;28.90;14.82;;;;;;;;;;5035934;28;20182;-67
2022/10/13 03:29:06;;;;;;;22.40;13.13;;;;;;;;;;5041853;28;20542;-67
2022/10/13 03:31:31;;;;;;;26.90;14.10;;;;;;;;;;5033237;28;20658;-67
2022/10/13 03:33:57;;;;;;;24.35;13.70;;;;;;;;;;5031482;28;20190;-67
2022/10/13 03:36:22;;;;;;;30.88;14.90;;;;;;;;;;5028072;28;20178;-67
2022/10/13 03:38:47;;;;;;;27.38;14.43;;;;;;;;;;5045070;28;20189;-67
2022/10/13 03:41:17;;;;;;;26.70;14.20;;;;;;;;;;5036545;28;20181;-67
2022/10/13 03:43:43;;;;;;;25.55;14.73;;;;;;;;;;5035379;28;20197;-67
2022/10/13 03:46:13;;;;;;;25.73;14.57;;;;;;;;;;5038257;28;20205;-67
2022/10/13 03:48:39;;;;;;;24.45;14.45;;;;;;;;;;5042289;28;20255;-67
2022/10/13 03:51:06;;;;;;;26.65;14.52;;;;;;;;;;5037430;28;20177;-68
2022/10/13 03:53:31;;;;;;;30.00;14.95;;;;;;;;;;5043682;28;20654;-67
2022/10/13 03:55:57;;;;;;;23.00;13.18;;;;;;;;;;5039786;28;20265;-67
2022/10/13 03:58:23;;;;;;;23.67;14.57;;;;;;;;;;5030463;28;20332;-67
2022/10/13 04:00:49;;;;;;;23.80;13.93;;;;;;;;;;5039087;28;20174;-67
2022/10/13 04:03:15;;;;;;;29.67;14.13;;;;;;;;;;5033852;28;20257;-68
2022/10/13 04:05:41;;;;;;;27.23;13.98;;;;;;;;;;5029881;28;20193;-67
2022/10/13 04:08:07;;;;;;;31.75;15.38;;;;;;;;;;5028298;28;20265;-68
2022/10/13 04:10:32;;;;;;;26.85;13.43;;;;;;;;;;5036423;28;20178;-67
2022/10/13 04:12:58;;;;;;;23.27;14.10;;;;;;;;;;5038057;28;20193;-67
2022/10/13 04:15:24;;;;;;;29.58;15.73;;;;;;;;;;5040072;28;20615;-67
2022/10/13 04:17:49;;;;;;;27.73;14.50;;;;;;;;;;5029458;28;20177;-67
2022/10/13 04:20:14;;;;;;;25.90;13.98;;;;;;;;;;5029693;28;20618;-67
2022/10/13 04:22:40;;;;;;;25.50;13.68;;;;;;;;;;5038701;28;20178;-67
2022/10/13 04:25:06;;;;;;;29.08;15.07;;;;;;;;;;5043429;28;20205;-67
2022/10/13 04:27:31;;;;;;;29.98;15.68;;;;;;;;;;5046446;28;20184;-67
2022/10/13 04:29:57;;;;;;;32.33;15.38;;;;;;;;;;5031769;28;20178;-67
2022/10/13 04:32:22;;;;;;;20.90;13.07;;;;;;;;;;5030379;28;20221;-67
2022/10/13 04:34:48;;;;;;;26.75;15.25;;;;;;;;;;5037548;28;20189;-69
2022/10/13 04:37:13;;;;;;;28.02;15.13;;;;;;;;;;5043647;28;20268;-68
2022/10/13 04:39:38;;;;;;;25.92;15.23;;;;;;;;;;5042579;28;20181;-67
2022/10/13 04:42:04;;;;;;;26.25;14.35;;;;;;;;;;5028662;28;20190;-67
2022/10/13 04:44:29;;;;;;;24.25;15.55;;;;;;;;;;5035453;28;20293;-67
2022/10/13 04:46:55;;;;;;;27.15;14.88;;;;;;;;;;5031547;28;20228;-67
2022/10/13 04:49:20;;;;;;;27.88;15.18;;;;;;;;;;5030097;28;20190;-67
2022/10/13 04:51:46;;;;;;;31.42;16.45;;;;;;;;;;5030734;28;20190;-67
2022/10/13 04:54:11;;;;;;;24.80;15.57;;;;;;;;;;5038308;28;20264;-67
2022/10/13 04:56:36;;;;;;;28.73;15.60;;;;;;;;;;5039885;28;20177;-67
2022/10/13 04:59:04;;;;;;;34.10;15.95;;;;;;;;;;5038295;28;20182;-67
2022/10/13 05:01:30;;;;;;;31.08;14.82;;;;;;;;;;5043998;28;20316;-68
2022/10/13 05:03:58;;;;;;;30.52;16.15;;;;;;;;;;5032141;28;20273;-68
2022/10/13 05:06:27;;;;;;;31.38;15.82;;;;;;;;;;5031194;28;20194;-68
2022/10/13 05:08:52;;;;;;;26.98;15.48;;;;;;;;;;5033721;28;20707;-67
2022/10/13 05:11:19;;;;;;;30.17;15.45;;;;;;;;;;5041089;28;20365;-67
2022/10/13 05:13:45;;;;;;;36.58;15.98;;;;;;;;;;5030552;28;20567;-67
2022/10/13 05:16:13;;;;;;;27.55;15.98;;;;;;;;;;5038196;28;20193;-67
2022/10/13 05:18:38;;;;;;;29.52;15.65;;;;;;;;;;5039662;28;20638;-67
2022/10/13 05:21:10;;;;;;;27.45;15.32;;;;;;;;;;5031923;28;20182;-67
2022/10/13 05:23:36;;;;;;;27.40;15.82;;;;;;;;;;5038947;28;20193;-67
2022/10/13 05:26:07;;;;;;;25.73;15.77;;;;;;;;;;5039401;28;20336;-67
2022/10/13 05:28:32;;;;;;;28.23;14.15;;;;;;;;;;5035428;28;20190;-67
2022/10/13 05:31:09;;;;;;;29.58;15.57;;;;;;;;;;5035526;28;20229;-67
2022/10/13 05:33:35;;;;;;;27.30;15.95;;;;;;;;;;5030234;28;20193;-67
2022/10/13 05:36:10;;;;;;;32.58;17.65;;;;;;;;;;5034993;28;20170;-67
2022/10/13 05:38:35;;;;;;;28.65;16.00;;;;;;;;;;5033343;28;20502;-67
2022/10/13 05:41:06;;;;;;;29.23;16.52;;;;;;;;;;5037031;28;20265;-67
2022/10/13 05:43:32;;;;;;;29.73;16.75;;;;;;;;;;5029891;28;20630;-67
2022/10/13 05:45:58;;;;;;;31.98;16.75;;;;;;;;;;5029585;28;20201;-67
2022/10/13 05:48:24;;;;;;;31.90;16.55;;;;;;;;;;5033530;28;20191;-67
2022/10/13 05:50:49;;;;;;;32.28;18.15;;;;;;;;;;5037836;28;20553;-67
2022/10/13 05:53:15;;;;;;;25.80;15.52;;;;;;;;;;5028973;28;20194;-67
2022/10/13 05:55:41;;;;;;;27.33;15.20;;;;;;;;;;5045144;28;20178;-67
2022/10/13 05:58:06;;;;;;;32.28;17.27;;;;;;;;;;5032584;28;21149;-67
2022/10/13 06:00:32;;;;;;;31.17;16.30;;;;;;;;;;5036525;28;20217;-68
2022/10/13 06:03:10;;;;;;;27.58;16.88;;;;;;;;;;5036639;28;20458;-67
2022/10/13 06:05:35;;;;;;;23.50;14.63;;;;;;;;;;5033134;28;20752;-67
2022/10/13 06:08:01;;;;;;;31.98;17.08;;;;;;;;;;5039669;28;20197;-67
2022/10/13 06:10:27;;;;;;;31.38;17.80;;;;;;;;;;5046293;28;20181;-67
2022/10/13 06:12:52;;;;;;;30.15;17.33;;;;;;;;;;5030782;28;20201;-67
2022/10/13 06:15:17;;;;;;;27.65;16.10;;;;;;;;;;5032942;28;20186;-68
2022/10/13 06:17:43;;;;;;;35.30;17.75;;;;;;;;;;5033702;28;20190;-67
2022/10/13 06:20:09;;;;;;;27.05;16.10;;;;;;;;;;5030390;28;20178;-69
2022/10/13 06:22:35;;;;;;;30.17;17.40;;;;;;;;;;5033612;28;20583;-67
2022/10/13 06:25:02;;;;;;;29.88;17.38;;;;;;;;;;5047528;28;20197;-69
2022/10/13 06:27:27;;;;;;;29.67;18.02;;;;;;;;;;5044867;28;20717;-69
2022/10/13 06:29:53;;;;;;;33.85;17.83;;;;;;;;;;5032164;28;20329;-67
2022/10/13 06:32:18;;;;;;;29.55;17.08;;;;;;;;;;5036823;28;20700;-68
2022/10/13 06:34:44;;;;;;;30.20;16.90;;;;;;;;;;5044279;28;20548;-68
2022/10/13 06:37:09;;;;;;;27.83;16.77;;;;;;;;;;5030874;28;20208;-68
2022/10/13 06:39:34;;;;;;;29.08;15.70;;;;;;;;;;5033035;28;20195;-69
2022/10/13 06:42:00;;;;;;;37.35;16.73;;;;;;;;;;5031903;28;20185;-68
2022/10/13 06:44:25;;;;;;;31.92;16.92;;;;;;;;;;5030912;28;20225;-68
2022/10/13 06:46:51;;;;;;;31.20;17.45;;;;;;;;;;5028711;28;20206;-68
2022/10/13 06:49:16;;;;;;;34.70;17.35;;;;;;;;;;5028230;28;20198;-68
2022/10/13 06:51:42;;;;;;;26.60;16.08;;;;;;;;;;5028144;28;20193;-68
2022/10/13 06:54:07;;;;;;;25.52;15.25;;;;;;;;;;5033934;28;20181;-68
2022/10/13 06:56:32;;;;;;;30.30;15.68;;;;;;;;;;5028617;28;20174;-68
2022/10/13 06:58:58;;;;;;;27.92;15.00;;;;;;;;;;5036275;28;20668;-68
2022/10/13 07:01:23;;;;;;;29.25;16.35;;;;;;;;;;5038872;28;20194;-68
2022/10/13 07:03:49;;;;;;;30.17;16.92;;;;;;;;;;5034847;28;20205;-68
2022/10/13 07:06:15;;;;;;;25.60;16.25;;;;;;;;;;5037273;28;20907;-68
2022/10/13 07:08:41;;;;;;;27.92;15.95;;;;;;;;;;5025645;28;20201;-68
2022/10/13 07:11:08;;;;;;;26.90;16.30;;;;;;;;;;5029306;28;20182;-68
2022/10/13 07:13:33;;;;;;;29.58;16.63;;;;;;;;;;5031396;28;20260;-68
2022/10/13 07:16:02;;;;;;;24.58;15.73;;;;;;;;;;5031315;28;20241;-67
2022/10/13 07:18:27;;;;;;;30.73;16.80;;;;;;;;;;5034118;28;20666;-68
2022/10/13 07:20:52;;;;;;;22.48;15.93;;;;;;;;;;5031354;28;20193;-68
2022/10/13 07:23:18;;;;;;;26.35;14.95;;;;;;;;;;5030778;28;20383;-68
2022/10/13 07:25:43;;;;;;;34.35;16.10;;;;;;;;;;5032164;28;21099;-68
2022/10/13 07:28:08;;;;;;;28.75;15.75;;;;;;;;;;5029068;28;20600;-68
2022/10/13 07:30:34;;;;;;;27.17;15.18;;;;;;;;;;5028679;28;20596;-68
2022/10/13 07:32:59;;;;;;;27.83;16.00;;;;;;;;;;5031258;28;20348;-68
2022/10/13 07:35:24;;;;;;;24.55;16.50;;;;;;;;;;5032292;28;20561;-68
2022/10/13 07:37:52;;;;;;;30.90;16.10;;;;;;;;;;5031045;28;20204;-68
2022/10/13 07:40:17;;;;;;;31.05;16.85;;;;;;;;;;5033399;28;20743;-68
2022/10/13 07:42:43;;;;;;;23.60;14.32;;;;;;;;;;5030447;28;20209;-68
2022/10/13 07:45:08;;;;;;;31.63;16.35;;;;;;;;;;5031612;28;20205;-68
2022/10/13 07:47:34;;;;;;;25.45;15.10;;;;;;;;;;5032620;28;20208;-68
2022/10/13 07:49:59;;;;;;;21.10;14.23;;;;;;;;;;5030404;28;20654;-68
2022/10/13 07:52:24;;;;;;;30.13;15.82;;;;;;;;;;5031270;28;20186;-68
2022/10/13 07:54:50;;;;;;;26.90;15.52;;;;;;;;;;5029889;28;20726;-68
2022/10/13 07:57:15;;;;;;;29.92;16.02;;;;;;;;;;5029922;28;20236;-68
2022/10/13 07:59:41;;;;;;;28.58;16.05;;;;;;;;;;5030900;28;20182;-68
2022/10/13 08:02:08;;;;;;;26.33;15.27;;;;;;;;;;5039340;28;20189;-68
2022/10/13 08:04:34;;;;;;;23.88;15.45;;;;;;;;;;5032716;28;20204;-68
2022/10/13 08:06:59;;;;;;;27.88;14.45;;;;;;;;;;5033247;28;20186;-68
2022/10/13 08:09:25;;;;;;;28.92;14.35;;;;;;;;;;5030471;28;20273;-68
2022/10/13 08:11:51;;;;;;;23.70;12.57;;;;;;;;;;5034291;28;20186;-68
2022/10/13 08:14:16;;;;;;;28.98;13.70;;;;;;;;;;5032749;28;20227;-68
2022/10/13 08:16:44;;;;;;;25.58;13.52;;;;;;;;;;5042563;28;20178;-68
2022/10/13 08:19:11;;;;;;;22.38;13.18;;;;;;;;;;5029478;28;20182;-68
2022/10/13 08:21:37;;;;;;;26.15;13.05;;;;;;;;;;5049774;28;20534;-68
2022/10/13 08:24:04;;;;;;;23.20;14.02;;;;;;;;;;5033903;28;20186;-68
2022/10/13 08:26:29;;;;;;;25.05;14.35;;;;;;;;;;5037365;28;20634;-68
2022/10/13 08:28:54;;;;;;;25.20;13.93;;;;;;;;;;5036443;28;20221;-68
2022/10/13 08:31:20;;;;;;;27.45;13.05;;;;;;;;;;5043464;28;20224;-68
2022/10/13 08:33:49;;;;;;;25.35;14.27;;;;;;;;;;5041753;28;20182;-68
2022/10/13 08:36:16;;;;;;;20.90;13.55;;;;;;;;;;5048510;28;20184;-68
2022/10/13 08:38:42;;;;;;;22.45;13.23;;;;;;;;;;5031334;28;20220;-68
2022/10/13 08:41:20;;;;;;;24.10;12.90;;;;;;;;;;5034917;28;20700;-68
2022/10/13 08:43:52;;;;;;;25.45;13.90;;;;;;;;;;5048542;28;20601;-68
2022/10/13 08:46:25;;;;;;;29.67;14.07;;;;;;;;;;5038563;28;20321;-68
2022/10/13 08:48:50;;;;;;;21.90;13.55;;;;;;;;;;5030791;28;20650;-68
2022/10/13 08:51:16;;;;;;;25.55;12.00;;;;;;;;;;5046887;28;20185;-68
2022/10/13 08:53:43;;;;;;;26.40;13.52;;;;;;;;;;5035021;28;20752;-68
2022/10/13 08:56:25;;;;;;;22.92;13.85;;;;;;;;;;5035798;28;20174;-68
2022/10/13 08:58:53;;;;;;;25.48;14.02;;;;;;;;;;5030790;28;20178;-68
2022/10/13 09:01:22;;;;;;;24.08;14.02;;;;;;;;;;5031994;28;20194;-68
2022/10/13 09:04:22;;;;;;;24.42;14.63;;;;;;;;;;5029998;28;20614;-68
2022/10/13 09:06:53;;;;;;;22.38;13.68;;;;;;;;;;5030186;28;20577;-68
2022/10/13 09:09:18;;;;;;;24.00;13.32;;;;;;;;;;5045314;28;20182;-68
2022/10/13 09:11:46;;;;;;;23.80;13.30;;;;;;;;;;5039032;28;20189;-68
2022/10/13 09:14:21;;;;;;;23.17;12.85;;;;;;;;;;5046410;28;20186;-68
2022/10/13 09:16:48;;;;;;;25.15;14.18;;;;;;;;;;5039436;28;20209;-68
2022/10/13 09:19:29;;;;;;;26.15;15.43;;;;;;;;;;5039413;28;20212;-68
2022/10/13 09:22:14;;;;;;;25.23;13.38;;;;;;;;;;5037571;28;20193;-68
2022/10/13 09:24:39;;;;;;;26.23;14.30;;;;;;;;;;5040326;28;20219;-68
2022/10/13 09:27:13;;;;;;;28.75;13.90;;;;;;;;;;5034263;28;20259;-68
2022/10/13 09:29:39;;;;;;;25.38;15.02;;;;;;;;;;5032962;28;20221;-68
2022/10/13 09:32:24;;;;;;;24.90;15.25;;;;;;;;;;5043541;28;20637;-69
2022/10/13 09:34:50;;;;;;;29.35;16.10;;;;;;;;;;5040456;28;20190;-69
2022/10/13 09:37:24;;;;;;;25.63;16.50;;;;;;;;;;5040783;28;20263;-69
2022/10/13 09:40:13;;;;;;;32.03;16.95;;;;;;;;;;5042800;28;20186;-69
2022/10/13 09:42:39;;;;;;;34.85;17.40;;;;;;;;;;5036872;28;20178;-69
2022/10/13 09:45:20;;;;;;;32.70;17.83;;;;;;;;;;5033157;28;20234;-69
2022/10/13 09:47:59;;;;;;;32.00;19.15;;;;;;;;;;5050329;28;20547;-69
2022/10/13 09:50:33;;;;;;;30.02;17.98;;;;;;;;;;5035198;28;20181;-70
2022/10/13 09:53:38;;;;;;;29.33;17.02;;;;;;;;;;5033993;28;20522;-69
2022/10/13 09:56:17;;;;;;;31.27;17.50;;;;;;;;;;5030810;28;20182;-68
2022/10/13 09:58:52;;;;;;;26.45;17.15;;;;;;;;;;5034419;28;20181;-69
2022/10/13 10:01:27;;;;;;;25.92;17.73;;;;;;;;;;5034722;28;20185;-68
2022/10/13 10:03:54;;;;;;;29.55;17.27;;;;;;;;;;5035814;28;20194;-68
2022/10/13 10:06:19;;;;;;;35.30;17.73;;;;;;;;;;5041797;28;20198;-68
2022/10/13 10:09:03;;;;;;;34.30;18.67;;;;;;;;;;5032009;28;20189;-68
2022/10/13 10:11:42;;;;;;;28.45;17.05;;;;;;;;;;5031609;28;20213;-68
2022/10/13 10:14:30;;;;;;;31.13;18.27;;;;;;;;;;5036385;28;20236;-68
2022/10/13 10:17:18;;;;;;;30.73;17.40;;;;;;;;;;5039221;28;20189;-67
2022/10/13 10:19:52;;;;;;;30.20;18.08;;;;;;;;;;5028938;28;20600;-68
2022/10/13 10:22:30;;;;;;;32.85;18.25;;;;;;;;;;5036535;28;20209;-68
2022/10/13 10:25:17;;;;;;;31.00;17.67;;;;;;;;;;5027479;28;20748;-67
2022/10/13 10:28:03;;;;;;;26.98;17.30;;;;;;;;;;5030399;28;20193;-68
2022/10/13 10:30:32;;;;;;;40.65;18.30;;;;;;;;;;5036212;28;20239;-68
2022/10/13 10:33:03;;;;;;;35.92;17.27;;;;;;;;;;5033243;28;20220;-68
2022/10/13 10:35:45;;;;;;;29.35;17.83;;;;;;;;;;5029071;28;20177;-68
2022/10/13 10:38:19;;;;;;;28.88;18.00;;;;;;;;;;5038691;28;20243;-69
2022/10/13 10:41:13;;;;;;;31.75;18.58;;;;;;;;;;5031190;28;20181;-68
2022/10/13 10:44:01;;;;;;;33.58;18.08;;;;;;;;;;5041224;28;20175;-68
2022/10/13 10:46:35;;;;;;;25.42;17.23;;;;;;;;;;5041157;28;20571;-69
2022/10/13 10:49:12;;;;;;;22.75;16.33;;;;;;;;;;5029804;28;20186;-68
2022/10/13 10:51:38;;;;;;;26.23;15.90;;;;;;;;;;5043068;28;20265;-68
2022/10/13 10:54:25;;;;;;;28.63;15.95;;;;;;;;;;5036999;28;20280;-68
2022/10/13 10:57:10;;;;;;;29.60;16.05;;;;;;;;;;5035793;28;20685;-68
2022/10/13 10:59:48;;;;;;;28.42;15.75;;;;;;;;;;5039951;28;20182;-68
2022/10/13 11:02:38;;;;;;;26.00;15.73;;;;;;;;;;5039070;28;20628;-68
2022/10/13 11:05:04;;;;;;;30.10;16.02;;;;;;;;;;5038991;28;20198;-68
2022/10/13 11:07:29;;;;;;;18.80;12.85;;;;;;;;;;5041780;28;20186;-68
2022/10/13 11:09:56;;;;;;;23.17;14.43;;;;;;;;;;5039284;28;20590;-68
2022/10/13 11:12:21;;;;;;;28.48;15.32;;;;;;;;;;5043206;28;20262;-68
2022/10/13 11:14:52;;;;;;;22.75;14.25;;;;;;;;;;5029034;28;20174;-68
2022/10/13 11:17:30;;;;;;;20.88;12.82;;;;;;;;;;5031614;28;20185;-67
2022/10/13 11:19:56;;;;;;;22.90;13.48;;;;;;;;;;5029441;28;20193;-68
2022/10/13 11:22:24;;;;;;;20.83;12.82;;;;;;;;;;5038055;28;20190;-68
2022/10/13 11:25:31;;;;;;;20.10;12.90;;;;;;;;;;5035633;28;20211;-68
2022/10/13 11:27:57;;;;;;;18.77;12.25;;;;;;;;;;5029767;28;20336;-67
2022/10/13 11:30:42;;;;;;;20.58;12.30;;;;;;;;;;5035169;28;20272;-67
2022/10/13 11:33:33;;;;;;;23.80;12.57;;;;;;;;;;5047580;28;20216;-67
2022/10/13 11:36:29;;;;;;;21.33;12.15;;;;;;;;;;5043266;28;20826;-67
2022/10/13 11:39:24;;;;;;;20.42;12.13;;;;;;;;;;5035704;28;20177;-67
2022/10/13 11:42:18;;;;;;;21.63;11.50;;;;;;;;;;5029495;28;20588;-67
2022/10/13 11:45:03;;;;;;;18.27;10.90;;;;;;;;;;5041318;28;20232;-67
2022/10/13 11:47:47;;;;;;;17.90;11.57;;;;;;;;;;5036668;28;20214;-67
2022/10/13 11:50:21;;;;;;;16.75;10.95;;;;;;;;;;5032710;28;20196;-67
2022/10/13 11:53:06;;;;;;;22.15;12.77;;;;;;;;;;5032809;28;20208;-67
2022/10/13 11:55:50;;;;;;;19.80;11.25;;;;;;;;;;5029840;28;20213;-67
2022/10/13 11:58:40;;;;;;;20.73;10.77;;;;;;;;;;5033679;28;20182;-67
2022/10/13 12:01:11;;;;;;;20.48;10.95;;;;;;;;;;5032947;28;20217;-67
2022/10/13 12:03:43;;;;;;;24.42;10.65;;;;;;;;;;5034622;28;20197;-67
2022/10/13 12:06:32;;;;;;;21.38;11.95;;;;;;;;;;5033097;28;20542;-68
2022/10/13 12:09:06;;;;;;;16.85;10.77;;;;;;;;;;5035774;28;20190;-67
2022/10/13 12:11:35;;;;;;;21.38;10.30;;;;;;;;;;5041829;28;20190;-68
2022/10/13 12:14:02;;;;;;;17.92;9.52;;;;;;;;;;5038022;28;20670;-67
2022/10/13 12:16:28;;;;;;;16.73;10.05;;;;;;;;;;5036210;28;20532;-68
2022/10/13 12:19:16;;;;;;;18.92;10.57;;;;;;;;;;5032947;28;20233;-67
2022/10/13 12:21:58;;;;;;;22.50;11.15;;;;;;;;;;5032923;28;20265;-67
2022/10/13 12:24:26;;;;;;;22.13;9.82;;;;;;;;;;5047699;28;20348;-67
2022/10/13 12:26:52;;;;;;;23.25;10.82;;;;;;;;;;5053270;28;20193;-67
2022/10/13 12:29:22;;;;;;;21.48;10.27;;;;;;;;;;5040244;28;20190;-68
2022/10/13 12:31:49;;;;;;;20.45;8.82;;;;;;;;;;5049560;28;20331;-68
2022/10/13 12:34:22;;;;;;;18.50;10.68;;;;;;;;;;5039490;28;20199;-68
2022/10/13 12:37:12;;;;;;;20.33;10.38;;;;;;;;;;5033135;28;20262;-68
2022/10/13 12:39:38;;;;;;;16.85;10.20;;;;;;;;;;5037662;28;20183;-67
2022/10/13 12:42:06;;;;;;;20.83;10.20;;;;;;;;;;5032250;28;20381;-67
2022/10/13 12:44:32;;;;;;;19.98;10.02;;;;;;;;;;5040329;28;20185;-67
2022/10/13 12:47:02;;;;;;;20.83;11.07;;;;;;;;;;5037613;28;20650;-68
2022/10/13 12:49:28;;;;;;;20.38;11.70;;;;;;;;;;5036408;28;20182;-67
2022/10/13 12:52:10;;;;;;;23.88;12.40;;;;;;;;;;5032657;28;20671;-68
2022/10/13 12:54:50;;;;;;;21.70;13.45;;;;;;;;;;5039462;28;20193;-67
2022/10/13 12:57:19;;;;;;;26.95;13.20;;;;;;;;;;5034399;28;20265;-68
2022/10/13 12:59:45;;;;;;;26.02;14.25;;;;;;;;;;5031225;28;20634;-68
2022/10/13 13:02:26;;;;;;;23.27;14.38;;;;;;;;;;5030786;28;20201;-67
2022/10/13 13:04:52;;;;;;;23.45;14.60;;;;;;;;;;5034043;28;20198;-67
2022/10/13 13:07:28;;;;;;;24.50;14.15;;;;;;;;;;5031467;28;20553;-67
2022/10/13 13:10:01;;;;;;;25.98;14.50;;;;;;;;;;5032638;28;20185;-67
2022/10/13 13:12:27;;;;;;;22.52;13.30;;;;;;;;;;5032384;28;20529;-67
2022/10/13 13:14:54;;;;;;;22.95;14.65;;;;;;;;;;5031924;28;20265;-68
2022/10/13 13:17:21;;;;;;;25.67;15.65;;;;;;;;;;5033000;28;20605;-67
2022/10/13 13:19:49;;;;;;;25.67;15.60;;;;;;;;;;5030204;28;20186;-67
2022/10/13 13:22:16;;;;;;;27.23;15.45;;;;;;;;;;5033091;28;20182;-67
2022/10/13 13:24:41;;;;;;;28.40;15.70;;;;;;;;;;5037101;28;20590;-67
2022/10/13 13:27:17;;;;;;;27.20;16.23;;;;;;;;;;5038202;28;20604;-67
2022/10/13 13:29:43;;;;;;;24.98;15.98;;;;;;;;;;5035251;28;20297;-67
2022/10/13 13:32:14;;;;;;;26.83;16.60;;;;;;;;;;5044789;28;20323;-68
2022/10/13 13:34:40;;;;;;;31.02;16.77;;;;;;;;;;5040795;28;20549;-68
2022/10/13 13:37:12;;;;;;;31.63;17.80;;;;;;;;;;5035526;28;20178;-68
2022/10/13 13:39:38;;;;;;;25.98;17.67;;;;;;;;;;5039648;28;20717;-68
2022/10/13 13:42:03;;;;;;;30.83;18.10;;;;;;;;;;5032135;28;20189;-68
2022/10/13 13:44:28;;;;;;;27.65;17.50;;;;;;;;;;5039861;28;20188;-69
2022/10/13 13:46:54;;;;;;;29.17;17.30;;;;;;;;;;5030806;28;20224;-69
2022/10/13 13:49:19;;;;;;;29.42;18.17;;;;;;;;;;5037691;28;20173;-67
2022/10/13 13:51:44;;;;;;;31.75;17.92;;;;;;;;;;5048040;28;20272;-67
2022/10/13 13:54:09;;;;;;;29.52;17.90;;;;;;;;;;5038225;28;20219;-67
2022/10/13 13:56:35;;;;;;;29.15;17.67;;;;;;;;;;5044989;28;20205;-69
2022/10/13 13:59:00;;;;;;;27.45;17.65;;;;;;;;;;5043851;28;20190;-67
2022/10/13 14:01:26;;;;;;;29.58;17.27;;;;;;;;;;5047627;28;20173;-68
2022/10/13 14:03:51;;;;;;;27.85;17.58;;;;;;;;;;5033485;28;20197;-67
2022/10/13 14:06:21;;;;;;;30.00;18.27;;;;;;;;;;5033603;28;20284;-68
2022/10/13 14:08:47;;;;;;;29.33;16.52;;;;;;;;;;5032984;28;20228;-69
2022/10/13 14:11:12;;;;;;;28.42;17.67;;;;;;;;;;5039468;28;20213;-67
2022/10/13 14:13:37;;;;;;;28.83;17.20;;;;;;;;;;5044997;28;20206;-67
2022/10/13 14:16:03;;;;;;;28.25;17.98;;;;;;;;;;5033467;28;20174;-68
2022/10/13 14:18:30;;;;;;;33.50;19.35;;;;;;;;;;5029427;28;20713;-68
2022/10/13 14:20:55;;;;;;;30.65;18.45;;;;;;;;;;5029476;28;20182;-67
2022/10/13 14:23:20;;;;;;;29.45;18.80;;;;;;;;;;5029007;28;20729;-67
2022/10/13 14:25:46;;;;;;;30.67;18.73;;;;;;;;;;5032729;28;20194;-68
2022/10/13 14:28:11;;;;;;;31.60;19.02;;;;;;;;;;5026093;28;21559;-67
2022/10/13 14:30:40;;;;;;;32.17;19.33;;;;;;;;;;5023577;28;20234;-68
2022/10/13 14:33:05;;;;;;;31.70;18.60;;;;;;;;;;5028195;28;20629;-68
2022/10/13 14:35:31;;;;;;;33.95;19.73;;;;;;;;;;5041293;28;20429;-67